Time;durP1;ratioP1;P1;durP2;ratioP2;P2;SDS_P1;SDS_P2;PMS_P1;PMS_P2;Temp;Humidity;BMP_temperature;BMP_pressure;BME280_temperature;BME280_humidity;BME280_pressure;Samples;Min_cycle;Max_cycle;Signal;HPM_P1;HPM_P2
2023/08/29 00:00:03;;;;;;;0.80;0.80;;;12.90;99.90;;;;;;4997911;28;20391;-79
2023/08/29 00:02:31;;;;;;;1.30;1.00;;;12.80;99.90;;;;;;4981457;28;20038;-79
2023/08/29 00:04:58;;;;;;;1.05;0.90;;;13.10;99.90;;;;;;4997651;28;20124;-79
2023/08/29 00:07:24;;;;;;;0.75;0.75;;;12.90;99.90;;;;;;4997936;28;20045;-79
2023/08/29 00:09:49;;;;;;;1.55;1.00;;;12.80;99.90;;;;;;4998257;28;20046;-79
2023/08/29 00:12:15;;;;;;;1.00;0.73;;;12.80;99.90;;;;;;4997899;28;20053;-79
2023/08/29 00:14:41;;;;;;;0.80;0.80;;;12.80;99.90;;;;;;4997313;28;20049;-79
2023/08/29 00:17:07;;;;;;;0.70;0.70;;;13.30;99.90;;;;;;4980878;28;20041;-79
2023/08/29 00:19:33;;;;;;;0.80;0.80;;;14.50;99.90;;;;;;4997446;28;20084;-79
2023/08/29 00:21:59;;;;;;;0.73;0.70;;;12.80;99.90;;;;;;4981145;28;20041;-79
2023/08/29 00:24:26;;;;;;;1.55;0.70;;;12.80;99.90;;;;;;4997207;28;20100;-79
2023/08/29 00:26:51;;;;;;;0.60;0.60;;;12.80;99.90;;;;;;4997425;28;20042;-79
2023/08/29 00:29:17;;;;;;;1.10;1.00;;;13.60;99.90;;;;;;4981076;28;20095;-78
2023/08/29 00:31:42;;;;;;;1.00;0.90;;;12.80;99.90;;;;;;4981025;28;20512;-78
2023/08/29 00:34:08;;;;;;;0.90;0.90;;;12.80;99.90;;;;;;4981234;28;20042;-78
2023/08/29 00:36:33;;;;;;;0.80;0.80;;;12.70;99.90;;;;;;4996996;28;20041;-79
2023/08/29 00:38:59;;;;;;;0.68;0.68;;;12.70;99.90;;;;;;4996954;28;20041;-79
2023/08/29 00:41:24;;;;;;;1.00;0.90;;;14.10;99.90;;;;;;4980783;28;20038;-79
2023/08/29 00:43:50;;;;;;;0.70;0.70;;;13.50;99.90;;;;;;4980937;28;20465;-79
2023/08/29 00:46:16;;;;;;;0.85;0.85;;;12.70;99.90;;;;;;4980913;28;20044;-79
2023/08/29 00:48:42;;;;;;;1.02;0.80;;;12.70;99.90;;;;;;4996692;28;20084;-79
2023/08/29 00:51:08;;;;;;;0.73;0.73;;;12.70;99.90;;;;;;4980817;28;20040;-79
2023/08/29 00:53:35;;;;;;;0.70;0.70;;;12.80;99.90;;;;;;4980561;28;20052;-79
2023/08/29 00:56:01;;;;;;;0.85;0.85;;;13.40;99.90;;;;;;4980291;28;20057;-78
2023/08/29 00:58:28;;;;;;;0.80;0.80;;;13.60;99.90;;;;;;4996913;28;20512;-79
2023/08/29 01:00:54;;;;;;;0.82;0.82;;;12.60;99.90;;;;;;4980435;28;20042;-79
2023/08/29 01:03:19;;;;;;;1.08;0.80;;;13.00;99.90;;;;;;4996564;28;20030;-79
2023/08/29 01:05:45;;;;;;;0.85;0.80;;;14.20;99.90;;;;;;4980322;28;20037;-79
2023/08/29 01:08:11;;;;;;;0.70;0.70;;;14.30;99.90;;;;;;4996547;28;20551;-79
2023/08/29 01:10:42;;;;;;;2.10;1.02;;;12.60;99.90;;;;;;4980434;28;20041;-81
2023/08/29 01:13:22;;;;;;;0.85;0.85;;;12.60;99.90;;;;;;4996634;28;20508;-81
2023/08/29 01:15:50;;;;;;;0.70;0.70;;;12.90;99.90;;;;;;4996633;28;20502;-81
2023/08/29 01:18:19;;;;;;;1.02;0.93;;;12.60;99.90;;;;;;4979926;28;20052;-81
2023/08/29 01:20:48;;;;;;;0.90;0.90;;;12.50;99.90;;;;;;4996217;28;20038;-81
2023/08/29 01:23:29;;;;;;;1.30;0.90;;;12.50;99.90;;;;;;4980159;28;20167;-81
2023/08/29 01:26:14;;;;;;;0.70;0.70;;;12.50;99.90;;;;;;4996251;28;20121;-81
2023/08/29 01:28:43;;;;;;;1.20;0.95;;;12.70;99.90;;;;;;4979452;28;20045;-81
2023/08/29 01:31:10;;;;;;;0.85;0.85;;;13.60;99.90;;;;;;4979838;28;20045;-81
2023/08/29 01:33:38;;;;;;;1.10;1.00;;;12.40;99.90;;;;;;4979876;28;20042;-81
2023/08/29 01:36:04;;;;;;;0.80;0.80;;;12.40;99.90;;;;;;4980442;28;20041;-80
2023/08/29 01:38:30;;;;;;;0.88;0.88;;;12.40;99.90;;;;;;4996028;28;20042;-81
2023/08/29 01:40:56;;;;;;;0.70;0.70;;;12.40;99.90;;;;;;4996077;28;20378;-79
2023/08/29 01:43:21;;;;;;;0.88;0.73;;;13.70;99.90;;;;;;4979982;28;20044;-79
2023/08/29 01:45:47;;;;;;;0.85;0.70;;;12.40;99.90;;;;;;4996099;28;20042;-79
2023/08/29 01:48:14;;;;;;;1.02;1.02;;;12.30;99.90;;;;;;4995942;28;20129;-79
2023/08/29 01:50:45;;;;;;;0.70;0.70;;;12.30;99.90;;;;;;4995805;28;20065;-79
2023/08/29 01:53:11;;;;;;;0.90;0.85;;;12.30;99.90;;;;;;4979617;28;20092;-79
2023/08/29 01:55:38;;;;;;;0.70;0.70;;;12.30;99.90;;;;;;4979471;28;20054;-80
2023/08/29 01:58:05;;;;;;;1.42;0.95;;;12.20;99.90;;;;;;4995833;28;20077;-79
2023/08/29 02:00:31;;;;;;;0.70;0.70;;;13.50;99.90;;;;;;4963341;28;20128;-79
2023/08/29 02:02:57;;;;;;;1.27;1.17;;;12.20;99.90;;;;;;4995695;28;20041;-79
2023/08/29 02:05:23;;;;;;;0.70;0.70;;;12.20;99.90;;;;;;4979874;28;20038;-79
2023/08/29 02:07:50;;;;;;;0.85;0.85;;;12.20;99.90;;;;;;4996547;28;20033;-79
2023/08/29 02:10:15;;;;;;;1.00;0.90;;;12.20;99.90;;;;;;4996418;28;20056;-79
2023/08/29 02:12:41;;;;;;;0.73;0.73;;;12.10;99.90;;;;;;4995872;28;20053;-79
2023/08/29 02:15:08;;;;;;;0.75;0.75;;;12.10;99.90;;;;;;4979797;28;20037;-79
2023/08/29 02:17:33;;;;;;;1.08;0.70;;;12.10;99.90;;;;;;4995642;28;20042;-79
2023/08/29 02:19:59;;;;;;;0.90;0.90;;;12.10;99.90;;;;;;4995556;28;20409;-80
2023/08/29 02:22:25;;;;;;;1.08;0.90;;;12.10;99.90;;;;;;4979588;28;20486;-80
2023/08/29 02:24:50;;;;;;;0.80;0.80;;;12.10;99.90;;;;;;4979495;28;20041;-80
2023/08/29 02:27:16;;;;;;;0.73;0.70;;;13.20;99.90;;;;;;4979880;28;20084;-80
2023/08/29 02:29:42;;;;;;;0.80;0.80;;;13.30;99.90;;;;;;4979646;28;20096;-80
2023/08/29 02:32:07;;;;;;;1.15;0.93;;;12.10;99.90;;;;;;4979873;28;20401;-80
2023/08/29 02:34:33;;;;;;;1.80;1.10;;;12.10;99.90;;;;;;4980359;28;20044;-80
2023/08/29 02:36:58;;;;;;;0.80;0.80;;;13.30;99.90;;;;;;4996570;28;20103;-80
2023/08/29 02:39:24;;;;;;;0.80;0.80;;;12.00;99.90;;;;;;4982315;28;20125;-80
2023/08/29 02:41:50;;;;;;;0.80;0.80;;;12.00;99.90;;;;;;5017546;28;20090;-80
2023/08/29 02:44:15;;;;;;;0.77;0.77;;;11.90;99.90;;;;;;5025345;28;20026;-80
2023/08/29 02:46:41;;;;;;;2.33;1.00;;;12.80;99.90;;;;;;5025401;28;20048;-81
2023/08/29 02:49:07;;;;;;;2.13;1.25;;;11.90;99.90;;;;;;5025649;28;20022;-81
2023/08/29 02:51:32;;;;;;;1.25;1.15;;;13.20;99.90;;;;;;5009215;28;20045;-80
2023/08/29 02:53:58;;;;;;;1.10;1.00;;;11.90;99.90;;;;;;5009164;28;20041;-80
2023/08/29 02:56:24;;;;;;;0.80;0.80;;;11.90;99.90;;;;;;5025006;28;20057;-80
2023/08/29 02:58:50;;;;;;;1.50;0.90;;;11.90;99.90;;;;;;5025100;28;20038;-80
2023/08/29 03:01:16;;;;;;;0.68;0.68;;;11.90;99.90;;;;;;5009021;28;20026;-81
2023/08/29 03:03:42;;;;;;;0.88;0.88;;;11.90;99.90;;;;;;5009033;28;20033;-80
2023/08/29 03:06:07;;;;;;;0.70;0.70;;;11.90;99.90;;;;;;5025122;28;20054;-80
2023/08/29 03:08:33;;;;;;;0.93;0.90;;;11.90;99.90;;;;;;5025107;28;20022;-81
2023/08/29 03:11:05;;;;;;;2.38;0.90;;;11.90;99.90;;;;;;5023906;28;20060;-80
2023/08/29 03:13:31;;;;;;;0.75;0.75;;;12.00;99.90;;;;;;5016753;28;20057;-81
2023/08/29 03:16:00;;;;;;;0.70;0.70;;;11.80;99.90;;;;;;5008340;28;20033;-81
2023/08/29 03:18:27;;;;;;;0.95;0.93;;;13.30;99.90;;;;;;5024798;28;20053;-81
2023/08/29 03:20:52;;;;;;;0.60;0.60;;;11.80;99.90;;;;;;5024850;28;20094;-81
2023/08/29 03:23:18;;;;;;;0.75;0.75;;;11.80;99.90;;;;;;5024750;28;20030;-80
2023/08/29 03:25:44;;;;;;;0.90;0.90;;;11.70;99.90;;;;;;5024729;28;20026;-81
2023/08/29 03:28:09;;;;;;;1.15;1.05;;;11.70;99.90;;;;;;5008477;28;20042;-81
2023/08/29 03:30:35;;;;;;;0.75;0.75;;;11.70;99.90;;;;;;5008419;28;20018;-81
2023/08/29 03:33:01;;;;;;;0.70;0.70;;;11.60;99.90;;;;;;5024686;28;20036;-82
2023/08/29 03:35:26;;;;;;;0.88;0.82;;;11.70;99.90;;;;;;5024729;28;20113;-82
2023/08/29 03:37:52;;;;;;;1.00;0.90;;;11.70;99.90;;;;;;5024609;28;20041;-82
2023/08/29 03:40:18;;;;;;;0.90;0.90;;;11.70;99.90;;;;;;5024511;28;20113;-82
2023/08/29 03:42:43;;;;;;;0.77;0.77;;;11.60;99.90;;;;;;5024331;28;20086;-82
2023/08/29 03:45:09;;;;;;;0.70;0.70;;;11.60;99.90;;;;;;5024037;28;20050;-82
2023/08/29 03:47:38;;;;;;;0.75;0.75;;;11.60;99.90;;;;;;5007825;28;20029;-82
2023/08/29 03:50:03;;;;;;;0.95;0.85;;;12.10;99.90;;;;;;5023927;28;20060;-82
2023/08/29 03:52:29;;;;;;;1.30;1.20;;;11.60;99.90;;;;;;5001441;28;20041;-82
2023/08/29 03:54:55;;;;;;;0.90;0.80;;;11.60;99.90;;;;;;4983949;28;20464;-82
2023/08/29 03:57:26;;;;;;;0.73;0.73;;;11.70;99.90;;;;;;5000117;28;20478;-82
2023/08/29 03:59:52;;;;;;;1.05;0.90;;;11.70;99.90;;;;;;4999368;28;20509;-82
2023/08/29 04:02:17;;;;;;;0.82;0.80;;;13.30;99.90;;;;;;4982798;28;20041;-81
2023/08/29 04:04:44;;;;;;;1.40;1.00;;;11.70;99.90;;;;;;4999168;28;20048;-82
2023/08/29 04:07:12;;;;;;;1.02;0.82;;;11.70;99.90;;;;;;4982006;28;20041;-82
2023/08/29 04:09:39;;;;;;;1.05;0.95;;;11.70;99.90;;;;;;4981437;28;20068;-81
2023/08/29 04:12:07;;;;;;;0.80;0.80;;;11.60;99.90;;;;;;4997459;28;20084;-82
2023/08/29 04:14:34;;;;;;;1.02;0.98;;;11.60;99.90;;;;;;4997438;28;20056;-82
2023/08/29 04:17:00;;;;;;;1.23;0.90;;;12.40;99.90;;;;;;4997727;28;20061;-82
2023/08/29 04:19:26;;;;;;;0.77;0.77;;;11.60;99.90;;;;;;4997462;28;20498;-82
2023/08/29 04:21:51;;;;;;;1.02;0.85;;;11.50;99.90;;;;;;4997496;28;20034;-81
2023/08/29 04:24:17;;;;;;;0.75;0.75;;;11.50;99.90;;;;;;4981450;28;20429;-82
2023/08/29 04:26:42;;;;;;;0.70;0.70;;;11.50;99.90;;;;;;4997378;28;20121;-81
2023/08/29 04:29:08;;;;;;;0.80;0.80;;;11.50;99.90;;;;;;4980911;28;20034;-82
2023/08/29 04:31:34;;;;;;;1.10;1.00;;;11.40;99.90;;;;;;4997169;28;20041;-82
2023/08/29 04:34:00;;;;;;;2.22;0.90;;;11.40;99.90;;;;;;4997186;28;20493;-80
2023/08/29 04:36:25;;;;;;;1.05;0.77;;;11.40;99.90;;;;;;4980901;28;20056;-79
2023/08/29 04:38:51;;;;;;;1.20;1.10;;;11.40;99.90;;;;;;4996982;28;20516;-80
2023/08/29 04:41:17;;;;;;;1.02;1.02;;;11.40;99.90;;;;;;4997019;28;20042;-80
2023/08/29 04:43:42;;;;;;;0.90;0.90;;;11.40;99.90;;;;;;4997406;28;20049;-79
2023/08/29 04:46:08;;;;;;;0.98;0.93;;;11.40;99.90;;;;;;4981147;28;20069;-79
2023/08/29 04:48:35;;;;;;;0.80;0.80;;;11.50;99.90;;;;;;4997198;28;20076;-79
2023/08/29 04:51:01;;;;;;;0.82;0.82;;;11.40;99.90;;;;;;4997435;28;20048;-79
2023/08/29 04:53:26;;;;;;;0.80;0.80;;;12.80;99.90;;;;;;4980836;28;20042;-79
2023/08/29 04:56:03;;;;;;;0.80;0.80;;;11.40;99.90;;;;;;4996796;28;20065;-79
2023/08/29 04:58:29;;;;;;;0.90;0.90;;;11.40;99.90;;;;;;4996661;28;20046;-79
2023/08/29 05:00:56;;;;;;;1.15;1.05;;;11.60;99.90;;;;;;4996612;28;20120;-79
2023/08/29 05:03:22;;;;;;;1.25;0.90;;;11.30;99.90;;;;;;4979984;28;20124;-79
2023/08/29 05:05:48;;;;;;;1.55;0.93;;;11.40;99.90;;;;;;4996262;28;20076;-79
2023/08/29 05:08:14;;;;;;;0.70;0.70;;;11.30;99.90;;;;;;4996744;28;20421;-79
2023/08/29 05:10:43;;;;;;;1.02;0.95;;;11.40;99.90;;;;;;4980476;28;20052;-79
2023/08/29 05:13:10;;;;;;;1.00;0.90;;;11.40;99.90;;;;;;4980268;28;20460;-79
2023/08/29 05:15:35;;;;;;;1.00;0.95;;;11.40;99.90;;;;;;4996550;28;20397;-81
2023/08/29 05:18:01;;;;;;;0.90;0.90;;;11.50;99.90;;;;;;4980169;28;20048;-80
2023/08/29 05:20:27;;;;;;;0.80;0.80;;;13.60;99.90;;;;;;4996280;28;20046;-80
2023/08/29 05:22:52;;;;;;;0.90;0.90;;;11.50;99.90;;;;;;4980198;28;20050;-80
2023/08/29 05:25:18;;;;;;;0.80;0.80;;;11.50;99.90;;;;;;4996316;28;20520;-80
2023/08/29 05:27:43;;;;;;;0.90;0.90;;;11.50;99.90;;;;;;4980354;28;20034;-79
2023/08/29 05:30:09;;;;;;;0.98;0.98;;;11.50;99.90;;;;;;4996245;28;20038;-79
2023/08/29 05:32:38;;;;;;;0.70;0.70;;;11.50;99.90;;;;;;4996174;28;20041;-81
2023/08/29 05:35:05;;;;;;;1.70;1.00;;;11.60;99.90;;;;;;4979712;28;20037;-82
2023/08/29 05:37:30;;;;;;;0.93;0.93;;;11.60;99.90;;;;;;4996480;28;20042;-82
2023/08/29 05:39:56;;;;;;;0.85;0.80;;;11.60;99.90;;;;;;4996140;28;20053;-82
2023/08/29 05:42:22;;;;;;;0.88;0.88;;;11.70;99.90;;;;;;4996119;28;20034;-80
2023/08/29 05:44:47;;;;;;;0.80;0.80;;;12.60;99.90;;;;;;4996285;28;20046;-81
2023/08/29 05:47:13;;;;;;;0.85;0.82;;;11.70;99.90;;;;;;4996081;28;20049;-80
2023/08/29 05:49:38;;;;;;;1.02;1.00;;;11.70;99.90;;;;;;4979961;28;20081;-80
2023/08/29 05:52:05;;;;;;;0.88;0.88;;;11.70;99.90;;;;;;4995750;28;20038;-79
2023/08/29 05:54:31;;;;;;;0.80;0.80;;;11.80;99.90;;;;;;4995670;28;20107;-85
2023/08/29 05:56:56;;;;;;;0.70;0.70;;;11.80;99.90;;;;;;4979617;28;20061;-86
2023/08/29 05:59:22;;;;;;;0.90;0.85;;;12.40;99.90;;;;;;4979707;28;20445;-86
2023/08/29 06:01:48;;;;;;;0.95;0.95;;;11.80;99.90;;;;;;4980116;28;20069;-86
2023/08/29 06:04:14;;;;;;;0.70;0.70;;;11.80;99.90;;;;;;4995690;28;20092;-82
2023/08/29 06:06:40;;;;;;;1.13;1.02;;;11.80;99.90;;;;;;4979768;28;20041;-82
2023/08/29 06:09:08;;;;;;;0.80;0.80;;;12.80;99.90;;;;;;4979956;28;20068;-81
2023/08/29 06:11:34;;;;;;;0.98;0.98;;;11.90;99.90;;;;;;4995929;28;20080;-81
2023/08/29 06:14:01;;;;;;;0.88;0.88;;;11.70;99.90;;;;;;4979486;28;20073;-82
2023/08/29 06:16:26;;;;;;;0.85;0.80;;;12.00;99.90;;;;;;4982119;28;20044;-81
2023/08/29 06:18:52;;;;;;;1.23;1.00;;;14.10;99.90;;;;;;5000336;28;20054;-81
2023/08/29 06:21:18;;;;;;;0.90;0.90;;;12.00;99.90;;;;;;4983910;28;20046;-81
2023/08/29 06:23:43;;;;;;;1.88;1.20;;;12.80;99.90;;;;;;4983628;28;20033;-81
2023/08/29 06:26:09;;;;;;;1.00;0.98;;;14.00;99.90;;;;;;5000175;28;20180;-82
2023/08/29 06:28:38;;;;;;;0.80;0.80;;;12.10;99.90;;;;;;4983493;28;20037;-81
2023/08/29 06:31:05;;;;;;;1.70;1.02;;;14.30;99.90;;;;;;4983555;28;20041;-81
2023/08/29 06:33:31;;;;;;;1.52;0.80;;;11.90;99.90;;;;;;4983554;28;20045;-81
2023/08/29 06:35:57;;;;;;;0.77;0.77;;;14.00;99.90;;;;;;4983605;28;20060;-83
2023/08/29 06:38:23;;;;;;;1.65;1.00;;;13.50;99.90;;;;;;4983315;28;20394;-81
2023/08/29 06:40:55;;;;;;;1.05;0.70;;;12.60;99.90;;;;;;4982992;28;20076;-82
2023/08/29 06:43:22;;;;;;;0.93;0.80;;;12.80;99.90;;;;;;4983008;28;20056;-84
2023/08/29 06:45:47;;;;;;;1.10;1.00;;;12.90;99.90;;;;;;4999163;28;20099;-83
2023/08/29 06:48:13;;;;;;;1.20;1.08;;;13.10;99.90;;;;;;4999307;28;20528;-84
2023/08/29 06:50:39;;;;;;;0.88;0.82;;;14.60;99.90;;;;;;4999163;28;20497;-83
2023/08/29 06:53:05;;;;;;;0.73;0.73;;;13.10;99.90;;;;;;4999493;28;20077;-83
2023/08/29 06:55:32;;;;;;;0.77;0.77;;;15.60;99.90;;;;;;4998982;28;20068;-83
2023/08/29 06:57:58;;;;;;;0.60;0.60;;;13.80;99.90;;;;;;4999020;28;20081;-83
2023/08/29 07:00:23;;;;;;;0.70;0.70;;;15.70;99.90;;;;;;4982925;28;20073;-83
2023/08/29 07:02:52;;;;;;;0.55;0.55;;;15.80;99.90;;;;;;4998912;28;20038;-84
2023/08/29 07:05:18;;;;;;;0.82;0.70;;;14.40;99.90;;;;;;4998890;28;20040;-83
2023/08/29 07:07:44;;;;;;;0.60;0.60;;;14.20;99.90;;;;;;4982868;28;20482;-84
2023/08/29 07:10:10;;;;;;;0.50;0.50;;;15.40;99.90;;;;;;4998718;28;20042;-84
2023/08/29 07:12:37;;;;;;;0.98;0.88;;;14.50;99.90;;;;;;4998883;28;20413;-86
2023/08/29 07:15:03;;;;;;;0.60;0.60;;;14.70;99.90;;;;;;4998611;28;20125;-88
2023/08/29 07:17:29;;;;;;;0.50;0.50;;;14.80;99.90;;;;;;4998569;28;20505;-86
2023/08/29 07:19:55;;;;;;;0.43;0.43;;;15.00;99.90;;;;;;4998487;28;20145;-85
2023/08/29 07:22:20;;;;;;;0.73;0.60;;;15.00;99.90;;;;;;4982592;28;20106;-83
2023/08/29 07:24:46;;;;;;;0.47;0.47;;;15.70;99.90;;;;;;4982183;28;20049;-83
2023/08/29 07:27:12;;;;;;;0.40;0.40;;;15.30;99.90;;;;;;4997538;28;20041;-83
2023/08/29 07:29:37;;;;;;;1.27;0.68;;;16.30;99.90;;;;;;4982371;28;20132;-83
2023/08/29 07:32:04;;;;;;;0.40;0.40;;;15.70;99.90;;;;;;4982454;28;20405;-83
2023/08/29 07:34:29;;;;;;;0.40;0.40;;;15.80;99.90;;;;;;4998515;28;20042;-83
2023/08/29 07:36:55;;;;;;;0.30;0.30;;;17.10;99.90;;;;;;4982552;28;20375;-84
2023/08/29 07:39:22;;;;;;;0.32;0.32;;;16.00;99.90;;;;;;4998109;28;20037;-84
2023/08/29 07:41:47;;;;;;;0.65;0.45;;;16.20;99.90;;;;;;4998303;28;20044;-84
2023/08/29 07:44:13;;;;;;;0.90;0.50;;;16.90;99.90;;;;;;4982072;28;20046;-83
2023/08/29 07:46:39;;;;;;;1.08;0.52;;;16.40;99.90;;;;;;4998083;28;20084;-84
2023/08/29 07:49:13;;;;;;;0.30;0.30;;;16.40;99.90;;;;;;4981978;28;20042;-83
2023/08/29 07:51:41;;;;;;;0.30;0.30;;;17.20;99.90;;;;;;4997883;28;20045;-83
2023/08/29 07:54:07;;;;;;;0.43;0.32;;;16.70;99.90;;;;;;4997947;28;20052;-82
2023/08/29 07:56:33;;;;;;;0.30;0.30;;;18.50;99.90;;;;;;4997986;28;20061;-83
2023/08/29 07:58:58;;;;;;;0.20;0.20;;;16.70;99.90;;;;;;4997845;28;20045;-84
2023/08/29 08:01:24;;;;;;;1.10;0.43;;;17.60;99.90;;;;;;4997746;28;20045;-83
2023/08/29 08:03:50;;;;;;;0.20;0.20;;;16.70;99.90;;;;;;4998019;28;20042;-85
2023/08/29 08:06:15;;;;;;;0.52;0.52;;;18.20;99.90;;;;;;4981813;28;20406;-82
2023/08/29 08:08:41;;;;;;;0.20;0.20;;;16.90;99.90;;;;;;4997543;28;20034;-83
2023/08/29 08:11:07;;;;;;;0.30;0.30;;;17.00;99.90;;;;;;4981465;28;20410;-83
2023/08/29 08:13:34;;;;;;;0.30;0.30;;;17.00;99.90;;;;;;4997524;28;20056;-83
2023/08/29 08:16:00;;;;;;;0.38;0.38;;;16.50;99.90;;;;;;4981438;28;20042;-83
2023/08/29 08:18:25;;;;;;;0.50;0.50;;;17.10;99.90;;;;;;4981493;28;20482;-82
2023/08/29 08:20:51;;;;;;;0.20;0.20;;;17.50;99.90;;;;;;4981127;28;20042;-82
2023/08/29 08:23:16;;;;;;;0.75;0.40;;;17.30;99.90;;;;;;4997776;28;20044;-87
2023/08/29 08:25:42;;;;;;;0.77;0.50;;;17.70;99.90;;;;;;4997744;28;20070;-86
2023/08/29 08:28:07;;;;;;;0.30;0.30;;;17.30;99.90;;;;;;4997433;28;20046;-87
2023/08/29 08:30:34;;;;;;;0.43;0.43;;;;;;;;;;4997253;28;20568;-86
2023/08/29 08:33:00;;;;;;;0.43;0.38;;;;;;;;;;4997727;28;20048;-83
2023/08/29 08:35:26;;;;;;;0.30;0.30;;;;;;;;;;4981344;28;20136;-83
2023/08/29 08:37:53;;;;;;;0.30;0.25;;;;;;;;;;4997053;28;20044;-82
2023/08/29 08:40:20;;;;;;;1.50;0.40;;;;;;;;;;4996976;28;20085;-82
2023/08/29 08:42:46;;;;;;;0.32;0.32;;;;;;;;;;4981187;28;20068;-82
2023/08/29 08:45:13;;;;;;;0.32;0.32;;;;;;;;;;4981135;28;20088;-84
2023/08/29 08:47:40;;;;;;;0.20;0.20;;;;;;;;;;4980630;28;20038;-84
2023/08/29 08:50:10;;;;;;;0.88;0.30;;;;;;;;;;4996919;28;20045;-83
2023/08/29 08:52:40;;;;;;;0.32;0.32;;;;;;;;;;4996901;28;20442;-83
2023/08/29 08:55:06;;;;;;;0.30;0.30;;;;;;;;;;4982330;28;20054;-82
2023/08/29 08:57:32;;;;;;;0.30;0.30;;;;;;;;;;4980743;28;20128;-83
2023/08/29 08:59:58;;;;;;;0.20;0.20;;;;;;;;;;4980297;28;20565;-82
2023/08/29 09:02:25;;;;;;;0.30;0.30;;;;;;;;;;4996543;28;20042;-82
2023/08/29 09:04:53;;;;;;;0.55;0.50;;;;;;;;;;4980745;28;20510;-82
2023/08/29 09:07:19;;;;;;;1.15;0.55;;;;;;;;;;4980389;28;20408;-83
2023/08/29 09:10:04;;;;;;;0.73;0.20;;;;;;;;;;4996887;28;20130;-82
2023/08/29 09:12:30;;;;;;;0.40;0.40;;;;;;;;;;4981010;28;20421;-81
2023/08/29 09:14:56;;;;;;;1.05;0.50;;;17.90;99.10;;;;;;4996380;28;20140;-82
2023/08/29 09:17:23;;;;;;;0.65;0.52;;;20.10;99.90;;;;;;4980384;28;20089;-82
2023/08/29 09:19:48;;;;;;;0.40;0.40;;;20.20;99.90;;;;;;4996350;28;20049;-82
2023/08/29 09:22:14;;;;;;;0.40;0.40;;;18.20;99.90;;;;;;4980422;28;20038;-82
2023/08/29 09:24:40;;;;;;;0.40;0.40;;;20.60;99.90;;;;;;4996612;28;20397;-83
2023/08/29 09:27:11;;;;;;;0.20;0.20;;;18.40;99.90;;;;;;4996271;28;20037;-81
2023/08/29 09:29:36;;;;;;;0.30;0.30;;;20.10;99.90;;;;;;4979886;28;20065;-82
2023/08/29 09:32:15;;;;;;;0.20;0.20;;;19.40;99.90;;;;;;4980281;28;20494;-86
2023/08/29 09:34:41;;;;;;;0.40;0.40;;;18.20;97.70;;;;;;4979867;28;20045;-88
2023/08/29 09:37:07;;;;;;;0.30;0.30;;;19.70;99.90;;;;;;4979698;28;20049;-86
2023/08/29 09:39:34;;;;;;;0.30;0.30;;;18.10;99.50;;;;;;4979618;28;20050;-87
2023/08/29 09:42:05;;;;;;;0.30;0.28;;;18.10;98.80;;;;;;4979730;28;20077;-86
2023/08/29 09:44:36;;;;;;;0.30;0.30;;;18.10;98.10;;;;;;4979877;28;20041;-88
2023/08/29 09:47:03;;;;;;;0.30;0.30;;;18.10;97.20;;;;;;4979852;28;20402;-87
2023/08/29 09:49:48;;;;;;;0.35;0.28;;;18.20;97.60;;;;;;4996012;28;20041;-88
2023/08/29 09:52:15;;;;;;;0.40;0.25;;;18.30;95.00;;;;;;4995758;28;20041;-87
2023/08/29 09:54:48;;;;;;;2.28;0.50;;;18.30;96.10;;;;;;4979804;28;20107;-88
2023/08/29 09:57:18;;;;;;;0.30;0.30;;;18.30;95.70;;;;;;4980073;28;20077;-88
2023/08/29 09:59:44;;;;;;;0.73;0.45;;;18.60;96.20;;;;;;4979840;28;20120;-89
2023/08/29 10:02:12;;;;;;;0.20;0.20;;;18.30;96.00;;;;;;4980635;28;20540;-88
2023/08/29 10:04:45;;;;;;;0.30;0.17;;;18.20;95.90;;;;;;4996506;28;20049;-91
2023/08/29 10:07:19;;;;;;;0.38;0.30;;;20.10;95.60;;;;;;4980741;28;20054;-89
2023/08/29 10:09:45;;;;;;;0.20;0.20;;;18.20;95.30;;;;;;4980624;28;20049;-89
2023/08/29 10:12:11;;;;;;;0.73;0.20;;;18.20;94.60;;;;;;4981089;28;20472;-88
2023/08/29 10:14:38;;;;;;;0.40;0.30;;;17.70;95.50;;;;;;4995851;28;20088;-88
2023/08/29 10:17:05;;;;;;;0.38;0.30;;;18.20;95.40;;;;;;4979718;28;20038;-89
2023/08/29 10:19:32;;;;;;;0.35;0.30;;;18.20;93.10;;;;;;4979880;28;20413;-89
2023/08/29 10:21:59;;;;;;;0.30;0.30;;;18.20;93.10;;;;;;4995975;28;20122;-88
2023/08/29 10:24:26;;;;;;;0.30;0.30;;;19.30;93.90;;;;;;4980357;28;20034;-90
2023/08/29 10:26:52;;;;;;;0.65;0.40;;;18.20;94.50;;;;;;4996260;28;20037;-89
2023/08/29 10:29:18;;;;;;;0.38;0.38;;;18.30;95.50;;;;;;4979550;28;20045;-89
2023/08/29 10:31:45;;;;;;;0.20;0.20;;;18.20;94.80;;;;;;4995914;28;20489;-89
2023/08/29 10:34:13;;;;;;;0.20;0.20;;;18.80;94.50;;;;;;4979322;28;20046;-90
2023/08/29 10:36:39;;;;;;;0.25;0.25;;;18.30;94.40;;;;;;4979606;28;20049;-90
2023/08/29 10:39:09;;;;;;;0.68;0.35;;;18.30;94.60;;;;;;4979263;28;20406;-89
2023/08/29 10:41:48;;;;;;;0.30;0.30;;;18.40;94.20;;;;;;4995820;28;20389;-90
2023/08/29 10:44:37;;;;;;;0.20;0.20;;;18.40;92.50;;;;;;4979541;28;20034;-81
2023/08/29 10:47:19;;;;;;;0.25;0.25;;;18.40;91.30;;;;;;4995956;28;20389;-81
2023/08/29 10:49:45;;;;;;;0.57;0.30;;;18.40;87.10;;;;;;4979366;28;20045;-81
2023/08/29 10:52:13;;;;;;;0.28;0.28;;;20.60;92.50;;;;;;4995527;28;20477;-81
2023/08/29 10:54:40;;;;;;;0.57;0.30;;;19.50;92.70;;;;;;4979693;28;20073;-81
2023/08/29 10:57:29;;;;;;;0.85;0.50;;;18.50;92.80;;;;;;4995519;28;20046;-81
2023/08/29 10:59:58;;;;;;;0.32;0.30;;;18.50;90.40;;;;;;5012872;28;20085;-81
2023/08/29 11:02:26;;;;;;;0.30;0.30;;;18.60;92.50;;;;;;4997949;28;20049;-81
2023/08/29 11:05:09;;;;;;;0.20;0.20;;;19.40;92.30;;;;;;4983431;28;20421;-81
2023/08/29 11:07:35;;;;;;;0.50;0.50;;;20.80;86.20;;;;;;4982702;28;20037;-81
2023/08/29 11:10:16;;;;;;;0.20;0.20;;;18.70;89.90;;;;;;4982735;28;20048;-81
2023/08/29 11:13:07;;;;;;;0.30;0.30;;;18.80;72.30;;;;;;5015702;28;20050;-81
2023/08/29 11:15:47;;;;;;;0.30;0.30;;;18.90;67.50;;;;;;4982696;28;20058;-81
2023/08/29 11:18:37;;;;;;;0.52;0.50;;;21.10;69.40;;;;;;4983029;28;20450;-81
2023/08/29 11:21:06;;;;;;;1.17;0.50;;;19.00;78.30;;;;;;4982371;28;20044;-82
2023/08/29 11:23:53;;;;;;;0.40;0.40;;;19.90;80.80;;;;;;4998631;28;20107;-82
2023/08/29 11:26:18;;;;;;;0.20;0.20;;;19.10;78.80;;;;;;4982882;28;20050;-81
2023/08/29 11:28:45;;;;;;;0.20;0.20;;;20.70;77.60;;;;;;4982354;28;20087;-81
2023/08/29 11:31:12;;;;;;;0.40;0.40;;;19.30;77.70;;;;;;4982815;28;20517;-81
2023/08/29 11:33:40;;;;;;;0.30;0.30;;;20.80;78.00;;;;;;5016412;28;20040;-81
2023/08/29 11:36:07;;;;;;;0.40;0.40;;;19.20;73.00;;;;;;4982177;28;20033;-82
2023/08/29 11:38:33;;;;;;;0.32;0.32;;;19.10;72.80;;;;;;4982237;28;20038;-81
2023/08/29 11:41:02;;;;;;;0.90;0.57;;;19.10;73.70;;;;;;4998221;28;20045;-81
2023/08/29 11:43:30;;;;;;;0.85;0.60;;;20.50;73.10;;;;;;4997873;28;20489;-81
2023/08/29 11:46:01;;;;;;;0.60;0.60;;;20.10;62.50;;;;;;4981836;28;20038;-81
2023/08/29 11:48:33;;;;;;;0.50;0.50;;;19.10;63.00;;;;;;4998833;28;20088;-81
2023/08/29 11:51:04;;;;;;;0.40;0.40;;;19.10;67.50;;;;;;4998293;28;20049;-81
2023/08/29 11:53:32;;;;;;;0.43;0.43;;;19.10;61.40;;;;;;4981887;28;20130;-81
2023/08/29 11:55:59;;;;;;;0.38;0.30;;;19.40;65.20;;;;;;4997959;28;20058;-80
2023/08/29 11:58:32;;;;;;;0.30;0.30;;;19.20;65.80;;;;;;4998019;28;20082;-81
2023/08/29 12:01:01;;;;;;;0.50;0.40;;;19.20;58.20;;;;;;4981814;28;20033;-81
2023/08/29 12:03:27;;;;;;;0.40;0.40;;;19.20;62.50;;;;;;4997991;28;20038;-88
2023/08/29 12:05:59;;;;;;;1.75;0.40;;;19.20;60.20;;;;;;4997687;28;20088;-89
2023/08/29 12:08:41;;;;;;;0.30;0.30;;;19.20;57.00;;;;;;4981732;28;20038;-90
2023/08/29 12:11:08;;;;;;;0.60;0.47;;;19.30;61.20;;;;;;4981438;28;20042;-89
2023/08/29 12:13:35;;;;;;;0.30;0.30;;;21.10;64.90;;;;;;4981119;28;20433;-89
2023/08/29 12:16:02;;;;;;;0.30;0.30;;;19.40;60.90;;;;;;4997492;28;20120;-89
2023/08/29 12:18:32;;;;;;;0.63;0.63;;;19.30;57.80;;;;;;4981489;28;20034;-90
2023/08/29 12:21:15;;;;;;;0.30;0.30;;;19.20;61.00;;;;;;4981241;28;20133;-90
2023/08/29 12:23:42;;;;;;;0.85;0.85;;;19.10;50.70;;;;;;4997649;28;20080;-90
2023/08/29 12:26:08;;;;;;;0.40;0.40;;;19.00;64.70;;;;;;4997514;28;20121;-88
2023/08/29 12:28:34;;;;;;;0.47;0.30;;;19.00;68.40;;;;;;4981376;28;20458;-88
2023/08/29 12:31:01;;;;;;;0.30;0.30;;;18.80;68.80;;;;;;4981570;28;20077;-89
2023/08/29 12:33:27;;;;;;;0.50;0.50;;;18.80;68.80;;;;;;4981091;28;20080;-89
2023/08/29 12:35:53;;;;;;;0.35;0.35;;;18.70;73.10;;;;;;4997108;28;20406;-89
2023/08/29 12:38:20;;;;;;;0.40;0.40;;;18.60;73.40;;;;;;4997165;28;20081;-88
2023/08/29 12:40:45;;;;;;;0.38;0.30;;;18.50;75.70;;;;;;4980914;28;20413;-88
2023/08/29 12:43:12;;;;;;;0.38;0.38;;;19.60;79.20;;;;;;4997009;28;20034;-89
2023/08/29 12:45:38;;;;;;;0.47;0.38;;;18.40;79.20;;;;;;4981206;28;20053;-88
2023/08/29 12:48:04;;;;;;;0.28;0.28;;;18.20;82.30;;;;;;4980751;28;20042;-89
2023/08/29 12:50:30;;;;;;;0.63;0.50;;;18.10;83.50;;;;;;4997070;28;20482;-88
2023/08/29 12:52:59;;;;;;;0.30;0.30;;;19.90;88.80;;;;;;4997090;28;20371;-88